Time;durP1;ratioP1;P1;durP2;ratioP2;P2;SDS_P1;SDS_P2;PMS_P1;PMS_P2;Temp;Humidity;BMP_temperature;BMP_pressure;BME280_temperature;BME280_humidity;BME280_pressure;Samples;Min_cycle;Max_cycle;Signal;HPM_P1;HPM_P2
2021/03/28 01:06:45;;;;;;;21.10;3.63;;;7.20;99.90;;;;;;1306569;23;20468;-92
2021/03/28 01:09:22;;;;;;;14.13;2.90;;;7.30;99.90;;;;;;4053186;29;20219;-91
2021/03/28 01:11:38;;;;;;;14.83;2.97;;;7.30;99.90;;;;;;4028779;29;20264;-92
2021/03/28 01:14:17;;;;;;;16.57;2.70;;;7.30;99.90;;;;;;4054526;29;20681;-91
2021/03/28 01:16:47;;;;;;;12.27;2.70;;;7.10;99.90;;;;;;4052023;29;20196;-90
2021/03/28 01:18:53;;;;;;;14.70;3.00;;;7.00;99.90;;;;;;3993022;29;20199;-90
2021/03/28 01:21:14;;;;;;;12.40;2.83;;;6.80;99.90;;;;;;4053745;29;20257;-91
2021/03/28 01:23:34;;;;;;;14.03;2.30;;;6.80;99.90;;;;;;4026009;29;20193;-91
2021/03/28 01:25:55;;;;;;;12.83;2.60;;;6.80;99.90;;;;;;4054390;29;20608;-90
2021/03/28 01:28:01;;;;;;;17.47;2.90;;;6.90;99.90;;;;;;4054582;29;20665;-90
2021/03/28 01:30:13;;;;;;;13.23;2.93;;;6.80;99.90;;;;;;4054399;29;20197;-92
2021/03/28 01:32:36;;;;;;;13.93;2.73;;;7.00;99.90;;;;;;4054259;29;20180;-91
2021/03/28 01:34:59;;;;;;;10.87;2.70;;;7.20;99.90;;;;;;4047449;29;20242;-90
2021/03/28 01:37:09;;;;;;;15.60;3.10;;;7.30;99.90;;;;;;4054254;29;20189;-91
2021/03/28 01:39:26;;;;;;;14.87;2.80;;;7.20;99.90;;;;;;4054255;29;20259;-91
2021/03/28 01:41:34;;;;;;;16.43;3.60;;;7.10;99.90;;;;;;4054050;29;20688;-94
2021/03/28 01:43:50;;;;;;;16.37;3.13;;;7.10;99.90;;;;;;4054217;29;20183;-90
2021/03/28 01:46:18;;;;;;;12.50;2.83;;;7.20;99.90;;;;;;4054434;29;20687;-91
2021/03/28 01:48:33;;;;;;;14.20;3.30;;;7.10;99.90;;;;;;4054307;29;20556;-92
2021/03/28 01:51:16;;;;;;;16.97;3.40;;;7.20;99.90;;;;;;4054188;29;20197;-91
2021/03/28 01:53:19;;;;;;;13.90;2.67;;;7.30;99.90;;;;;;4054188;29;20299;-90
2021/03/28 01:55:35;;;;;;;8.33;2.60;;;7.30;99.90;;;;;;4054142;29;20184;-94
2021/03/28 01:57:52;;;;;;;17.50;3.03;;;7.50;99.90;;;;;;4054224;29;20180;-91
2021/03/28 02:00:18;;;;;;;14.23;2.53;;;7.60;99.90;;;;;;4053895;29;20207;-91
2021/03/28 02:02:35;;;;;;;14.93;2.73;;;7.70;99.90;;;;;;4053766;29;20174;-91
2021/03/28 02:04:51;;;;;;;10.47;2.43;;;7.70;99.90;;;;;;4053881;29;20185;-90
2021/03/28 02:07:22;;;;;;;10.80;2.90;;;7.40;99.90;;;;;;4053580;29;20188;-89
2021/03/28 02:09:40;;;;;;;14.37;2.60;;;7.30;99.90;;;;;;4053837;29;20257;-90
2021/03/28 02:12:05;;;;;;;13.10;2.63;;;7.40;99.90;;;;;;4038291;29;20578;-90
2021/03/28 02:14:06;;;;;;;11.83;2.73;;;7.50;99.90;;;;;;4038162;29;20228;-90
2021/03/28 02:16:44;;;;;;;14.27;2.63;;;7.40;99.90;;;;;;4053672;29;20216;-91
2021/03/28 02:18:49;;;;;;;9.37;2.60;;;7.20;99.90;;;;;;4038229;29;20178;-94
2021/03/28 02:21:08;;;;;;;9.67;2.40;;;7.30;99.90;;;;;;4038166;29;20274;-90
2021/03/28 02:23:17;;;;;;;14.23;2.93;;;7.30;99.90;;;;;;4038139;29;20178;-91
2021/03/28 02:25:41;;;;;;;11.13;2.30;;;7.40;99.90;;;;;;4038205;29;20565;-90
2021/03/28 02:28:10;;;;;;;14.57;2.43;;;7.40;99.90;;;;;;4037955;29;20204;-90
2021/03/28 02:30:27;;;;;;;15.70;2.40;;;7.50;99.90;;;;;;4038390;29;20626;-94
2021/03/28 02:32:54;;;;;;;9.07;2.27;;;7.70;99.90;;;;;;4038055;29;20519;-91
2021/03/28 02:35:09;;;;;;;11.57;2.30;;;7.70;99.90;;;;;;4038028;29;20272;-93
2021/03/28 02:37:20;;;;;;;10.57;2.23;;;7.60;99.90;;;;;;4037936;29;20530;-90
2021/03/28 02:39:25;;;;;;;9.10;2.30;;;7.70;99.90;;;;;;4038079;29;20582;-90
2021/03/28 02:41:54;;;;;;;12.87;2.30;;;7.70;99.90;;;;;;4038047;29;20224;-94
2021/03/28 02:44:31;;;;;;;13.63;2.17;;;7.60;99.90;;;;;;4037957;29;20641;-90
2021/03/28 02:47:01;;;;;;;12.07;2.13;;;7.40;99.90;;;;;;4038210;29;20229;-91
2021/03/28 02:49:27;;;;;;;13.13;2.37;;;7.30;99.90;;;;;;4037749;29;20622;-91
2021/03/28 02:51:40;;;;;;;12.07;2.30;;;7.50;99.90;;;;;;4020368;29;20193;-91
2021/03/28 02:54:05;;;;;;;10.57;2.43;;;7.50;99.90;;;;;;4037391;29;20205;-91
2021/03/28 02:56:24;;;;;;;15.60;2.60;;;7.60;99.90;;;;;;4037884;29;20178;-91
2021/03/28 02:58:56;;;;;;;11.07;2.40;;;7.70;99.90;;;;;;4037831;29;20192;-91
2021/03/28 03:01:25;;;;;;;10.70;2.63;;;7.80;99.90;;;;;;4037606;29;20294;-90
2021/03/28 03:03:50;;;;;;;9.20;2.43;;;7.70;99.90;;;;;;4037787;29;20638;-91
2021/03/28 03:06:23;;;;;;;10.87;2.27;;;7.70;99.90;;;;;;4037781;29;20276;-91
2021/03/28 03:08:33;;;;;;;12.90;2.50;;;7.70;99.90;;;;;;4036459;29;20282;-91
2021/03/28 03:11:10;;;;;;;9.13;2.30;;;7.80;99.90;;;;;;4037722;29;20204;-91
2021/03/28 03:13:40;;;;;;;8.67;1.70;;;7.80;99.90;;;;;;4037711;29;20219;-91
2021/03/28 03:16:22;;;;;;;16.13;2.37;;;7.80;99.90;;;;;;4037909;29;20634;-91
2021/03/28 03:18:51;;;;;;;12.80;2.57;;;7.80;99.90;;;;;;4037258;29;20200;-90
2021/03/28 03:21:35;;;;;;;9.20;2.00;;;7.90;99.90;;;;;;4037681;29;20206;-91
2021/03/28 03:23:54;;;;;;;7.50;1.90;;;7.90;99.90;;;;;;4037477;29;20188;-91
2021/03/28 03:26:19;;;;;;;14.47;2.30;;;7.90;99.90;;;;;;4038116;29;20246;-90
2021/03/28 03:28:48;;;;;;;11.37;2.13;;;8.00;99.90;;;;;;4037668;29;20202;-90
2021/03/28 03:30:59;;;;;;;12.97;2.10;;;8.10;99.90;;;;;;4037593;29;20204;-90
2021/03/28 03:33:24;;;;;;;10.03;2.37;;;7.90;99.90;;;;;;4037468;29;20204;-91
2021/03/28 03:35:30;;;;;;;11.10;2.03;;;7.90;99.90;;;;;;4037630;29;20581;-92
2021/03/28 03:38:08;;;;;;;7.07;2.00;;;7.90;99.90;;;;;;4037592;29;20193;-90
2021/03/28 03:40:21;;;;;;;8.80;2.23;;;8.00;99.90;;;;;;4038152;29;20669;-90
2021/03/28 03:42:49;;;;;;;8.70;2.53;;;8.00;99.90;;;;;;4037495;29;20189;-90
2021/03/28 03:45:32;;;;;;;10.90;2.20;;;8.00;99.90;;;;;;4037486;29;20260;-90
2021/03/28 03:47:43;;;;;;;9.73;2.17;;;8.10;99.90;;;;;;4037135;29;20201;-91
2021/03/28 03:49:56;;;;;;;11.40;2.30;;;8.20;99.90;;;;;;4037686;29;20185;-92
2021/03/28 03:52:10;;;;;;;8.80;2.30;;;8.30;99.90;;;;;;4038658;29;20178;-89
2021/03/28 03:54:22;;;;;;;10.40;2.30;;;8.40;99.90;;;;;;4052839;29;20261;-91
2021/03/28 03:56:25;;;;;;;9.87;2.57;;;8.30;99.90;;;;;;4037657;29;20199;-91
2021/03/28 03:58:31;;;;;;;7.57;2.17;;;8.40;99.90;;;;;;4037926;29;20214;-92
2021/03/28 04:00:47;;;;;;;12.33;2.00;;;8.30;99.90;;;;;;4037549;29;20197;-89
2021/03/28 04:03:20;;;;;;;8.93;2.50;;;8.30;99.90;;;;;;4037268;29;20229;-90
2021/03/28 04:05:39;;;;;;;9.00;2.40;;;8.50;99.90;;;;;;4039715;29;20192;-90
2021/03/28 04:07:57;;;;;;;10.93;2.40;;;8.30;99.90;;;;;;4040484;29;20280;-95
2021/03/28 04:10:04;;;;;;;11.93;2.73;;;8.40;99.90;;;;;;4039927;29;20209;-90
2021/03/28 04:12:31;;;;;;;10.07;2.27;;;8.40;99.90;;;;;;4040735;29;20586;-91
2021/03/28 04:14:52;;;;;;;10.20;2.33;;;8.50;99.90;;;;;;4040059;29;20666;-91
2021/03/28 04:17:22;;;;;;;9.90;2.30;;;8.40;99.90;;;;;;4040253;29;20256;-91
2021/03/28 04:19:46;;;;;;;10.97;2.77;;;8.40;99.90;;;;;;4040146;29;20572;-90
2021/03/28 04:21:59;;;;;;;11.30;2.03;;;8.40;99.90;;;;;;4040134;29;20237;-91
2021/03/28 04:24:08;;;;;;;9.93;2.37;;;8.40;99.90;;;;;;4040107;29;20206;-92
2021/03/28 04:26:40;;;;;;;12.53;2.27;;;8.50;99.90;;;;;;4039887;29;20240;-91
2021/03/28 04:29:19;;;;;;;12.67;2.40;;;8.40;99.90;;;;;;4039856;29;20653;-90
2021/03/28 04:32:05;;;;;;;8.97;2.20;;;8.50;99.90;;;;;;4023997;29;20543;-91
2021/03/28 04:34:27;;;;;;;10.63;2.47;;;8.50;99.90;;;;;;3994942;29;20622;-90
2021/03/28 04:37:03;;;;;;;21.53;2.97;;;8.50;99.90;;;;;;4023441;29;20197;-92
2021/03/28 04:39:38;;;;;;;9.70;2.40;;;8.50;99.90;;;;;;4039732;29;20305;-91
2021/03/28 04:42:08;;;;;;;18.50;2.83;;;8.50;99.90;;;;;;4055167;29;20172;-90
2021/03/28 04:44:17;;;;;;;6.83;2.17;;;8.40;99.90;;;;;;4039715;29;20574;-93
2021/03/28 04:46:42;;;;;;;10.17;2.67;;;8.50;99.90;;;;;;4039789;29;20185;-90
2021/03/28 04:49:17;;;;;;;12.13;2.57;;;8.40;99.90;;;;;;4055052;29;20220;-91
2021/03/28 04:51:41;;;;;;;13.60;3.00;;;8.40;99.90;;;;;;4029544;29;20209;-90
2021/03/28 04:54:06;;;;;;;8.70;2.40;;;8.50;99.90;;;;;;4039320;29;20681;-91
2021/03/28 04:56:39;;;;;;;9.67;2.73;;;8.40;99.90;;;;;;4039316;29;20186;-94
2021/03/28 04:58:54;;;;;;;12.17;3.27;;;8.40;99.90;;;;;;4054935;29;20173;-91
2021/03/28 05:01:15;;;;;;;10.40;2.60;;;8.40;99.90;;;;;;4039254;29;20210;-90
2021/03/28 05:03:48;;;;;;;11.70;2.77;;;8.40;99.90;;;;;;4045259;29;20185;-91
2021/03/28 05:05:53;;;;;;;10.83;2.90;;;8.40;99.90;;;;;;4039384;29;20178;-91
2021/03/28 05:08:31;;;;;;;11.67;3.17;;;8.40;99.90;;;;;;4039059;29;20228;-92
2021/03/28 05:10:46;;;;;;;10.03;2.20;;;8.50;99.90;;;;;;4039220;29;20224;-92
2021/03/28 05:13:18;;;;;;;13.87;2.90;;;8.60;99.90;;;;;;4039182;29;20295;-92
2021/03/28 05:15:33;;;;;;;9.70;2.47;;;8.60;99.90;;;;;;4038798;29;20186;-94
2021/03/28 05:18:07;;;;;;;14.70;2.80;;;8.60;99.90;;;;;;4039144;29;20268;-92
2021/03/28 05:20:32;;;;;;;16.73;3.10;;;8.60;99.90;;;;;;4039120;29;20225;-92
2021/03/28 05:22:45;;;;;;;15.00;2.73;;;8.70;99.90;;;;;;4039232;29;20177;-91
2021/03/28 05:24:57;;;;;;;8.90;2.40;;;8.60;99.90;;;;;;4054646;29;20184;-91
2021/03/28 05:27:13;;;;;;;12.43;3.30;;;8.60;99.90;;;;;;4038950;29;20188;-91
2021/03/28 05:29:47;;;;;;;12.87;2.90;;;8.60;99.90;;;;;;4038991;29;20205;-91
2021/03/28 05:32:25;;;;;;;12.60;2.63;;;8.40;99.90;;;;;;4039190;29;20271;-90
2021/03/28 05:34:41;;;;;;;13.77;2.63;;;8.20;99.90;;;;;;4038981;29;20201;-91
2021/03/28 05:37:14;;;;;;;15.60;3.07;;;8.10;99.90;;;;;;4038799;29;20200;-91
2021/03/28 05:39:40;;;;;;;11.13;3.17;;;8.10;99.90;;;;;;4031671;29;20253;-92
2021/03/28 05:41:59;;;;;;;11.57;2.77;;;8.00;99.90;;;;;;4038937;29;20602;-90
2021/03/28 05:44:27;;;;;;;18.17;3.10;;;7.90;99.90;;;;;;4039329;29;20189;-90
2021/03/28 05:47:05;;;;;;;11.67;2.93;;;7.90;99.90;;;;;;4038884;29;20170;-92
2021/03/28 05:49:23;;;;;;;13.33;3.23;;;8.10;99.90;;;;;;4039000;29;20664;-92
2021/03/28 05:51:33;;;;;;;10.50;2.60;;;8.00;99.90;;;;;;4038739;29;20208;-91
2021/03/28 05:53:49;;;;;;;12.20;3.17;;;8.00;99.90;;;;;;4038588;29;20209;-91
2021/03/28 05:56:11;;;;;;;15.63;3.20;;;8.20;99.90;;;;;;4038621;29;20181;-90
2021/03/28 05:58:48;;;;;;;14.77;3.20;;;8.20;99.90;;;;;;4038871;29;20554;-91
2021/03/28 06:01:08;;;;;;;11.20;3.23;;;8.30;99.90;;;;;;4036905;29;20220;-95
2021/03/28 06:03:21;;;;;;;13.73;3.20;;;8.40;99.90;;;;;;4038513;29;20626;-91
2021/03/28 06:05:33;;;;;;;12.37;3.60;;;8.40;99.90;;;;;;4038383;29;20166;-90
2021/03/28 06:08:11;;;;;;;14.23;3.20;;;8.40;99.90;;;;;;4038467;29;20225;-91
2021/03/28 06:10:26;;;;;;;7.97;2.10;;;8.50;99.90;;;;;;4038491;29;20287;-92
2021/03/28 06:12:59;;;;;;;17.90;3.27;;;8.50;99.90;;;;;;4038449;29;20657;-92
2021/03/28 06:15:40;;;;;;;11.80;2.80;;;8.70;99.90;;;;;;4038574;29;20185;-90
2021/03/28 06:17:58;;;;;;;18.20;3.43;;;8.50;99.90;;;;;;4007207;29;20190;-95
2021/03/28 06:20:05;;;;;;;10.70;3.30;;;8.60;99.90;;;;;;4030187;29;20220;-92
2021/03/28 06:22:37;;;;;;;17.40;3.67;;;8.50;99.90;;;;;;4038216;29;20222;-95
2021/03/28 06:24:52;;;;;;;20.17;3.83;;;8.50;99.90;;;;;;4038508;29;20251;-93
2021/03/28 06:27:35;;;;;;;15.00;3.40;;;8.50;99.90;;;;;;4037677;29;20189;-90
2021/03/28 06:29:59;;;;;;;15.10;3.77;;;8.70;99.90;;;;;;4036628;29;20281;-92
2021/03/28 06:32:47;;;;;;;13.67;3.77;;;8.80;99.90;;;;;;4038205;29;20286;-91
2021/03/28 06:35:16;;;;;;;8.90;3.03;;;8.80;99.90;;;;;;4038405;29;20202;-90
2021/03/28 06:37:44;;;;;;;13.90;4.37;;;8.80;99.90;;;;;;4038026;29;20182;-92
2021/03/28 06:40:10;;;;;;;18.63;3.63;;;8.70;99.90;;;;;;4037935;29;20184;-91
2021/03/28 06:42:48;;;;;;;18.43;4.07;;;8.80;99.90;;;;;;4038006;29;20185;-91
2021/03/28 06:45:21;;;;;;;14.90;4.03;;;8.90;99.90;;;;;;4037905;29;20193;-91
2021/03/28 06:47:53;;;;;;;17.37;3.43;;;9.10;99.90;;;;;;4037613;29;20190;-90
2021/03/28 06:50:48;;;;;;;15.47;3.43;;;9.10;99.90;;;;;;4039057;29;20205;-91
2021/03/28 06:52:56;;;;;;;10.47;3.00;;;9.00;99.90;;;;;;3996558;29;20269;-91
2021/03/28 06:55:10;;;;;;;14.27;3.37;;;9.00;99.90;;;;;;4037939;29;20240;-92
2021/03/28 06:57:31;;;;;;;10.07;2.70;;;9.00;99.90;;;;;;4037876;29;20280;-94
2021/03/28 06:59:47;;;;;;;13.03;2.83;;;9.00;99.90;;;;;;4038161;29;20225;-92
2021/03/28 07:02:21;;;;;;;14.10;3.20;;;9.00;99.90;;;;;;4037914;29;20173;-91
2021/03/28 07:04:49;;;;;;;11.47;2.77;;;9.20;99.90;;;;;;4038335;29;20692;-92
2021/03/28 07:07:19;;;;;;;17.33;3.20;;;9.30;99.90;;;;;;4039462;29;20182;-95
2021/03/28 07:09:53;;;;;;;14.93;3.20;;;9.20;99.90;;;;;;4031701;29;20249;-91
2021/03/28 07:12:18;;;;;;;13.30;3.30;;;9.30;99.90;;;;;;4039727;29;20185;-92
2021/03/28 07:14:56;;;;;;;9.97;2.70;;;9.50;99.90;;;;;;4040852;29;20228;-91
2021/03/28 07:17:08;;;;;;;15.90;3.27;;;9.50;99.90;;;;;;4038468;29;20644;-94
2021/03/28 07:19:36;;;;;;;14.37;2.77;;;9.50;99.90;;;;;;4039113;29;20206;-91
2021/03/28 07:22:07;;;;;;;14.03;3.00;;;9.60;99.90;;;;;;4038285;29;20181;-96
2021/03/28 07:24:39;;;;;;;17.73;3.20;;;9.80;99.90;;;;;;4039890;29;20271;-92
2021/03/28 07:27:04;;;;;;;13.20;3.07;;;10.00;99.90;;;;;;4039739;29;20549;-91
2021/03/28 07:29:38;;;;;;;8.33;1.87;;;10.10;99.90;;;;;;4041089;29;20173;-92
2021/03/28 07:31:51;;;;;;;8.93;2.77;;;10.20;99.90;;;;;;4041462;29;20176;-91
2021/03/28 07:34:09;;;;;;;12.03;2.40;;;10.60;99.90;;;;;;4040107;29;20213;-94
2021/03/28 07:36:33;;;;;;;17.43;2.90;;;10.80;99.90;;;;;;4038847;29;20252;-96
2021/03/28 07:38:52;;;;;;;12.00;3.00;;;11.20;99.90;;;;;;4031800;29;20193;-93
2021/03/28 07:41:22;;;;;;;13.17;2.73;;;12.10;99.90;;;;;;4043723;29;20292;-92
2021/03/28 07:43:58;;;;;;;9.10;2.33;;;12.40;99.90;;;;;;4043104;29;20646;-95
2021/03/28 07:46:49;;;;;;;15.07;2.97;;;12.60;99.90;;;;;;4043506;29;20169;-92
2021/03/28 07:49:08;;;;;;;12.97;2.73;;;12.70;99.90;;;;;;4043834;29;20189;-96
2021/03/28 07:51:29;;;;;;;10.15;2.55;;;13.20;99.90;;;;;;4042139;29;20229;-92
2021/03/28 07:53:52;;;;;;;11.68;2.63;;;12.60;99.90;;;;;;4042257;29;20213;-93
2021/03/28 07:56:04;;;;;;;11.85;2.40;;;12.90;99.90;;;;;;4042754;29;20189;-95
2021/03/28 07:58:27;;;;;;;10.48;2.33;;;13.10;99.90;;;;;;4043651;29;20298;-92
2021/03/28 08:00:52;;;;;;;10.15;2.58;;;13.20;99.90;;;;;;4044479;29;20204;-92
2021/03/28 08:03:28;;;;;;;9.30;2.67;;;13.20;99.90;;;;;;4043213;29;20181;-94
2021/03/28 08:06:00;;;;;;;10.32;2.30;;;13.30;99.90;;;;;;4042921;29;20247;-95
2021/03/28 08:08:38;;;;;;;9.80;2.20;;;13.50;99.90;;;;;;4044855;29;20234;-92
2021/03/28 08:11:00;;;;;;;12.75;2.50;;;13.20;99.90;;;;;;4059872;29;20219;-93
2021/03/28 08:13:29;;;;;;;7.90;2.00;;;13.30;99.90;;;;;;4044026;29;20217;-92
2021/03/28 08:16:03;;;;;;;9.77;2.58;;;13.10;99.90;;;;;;4043691;29;20181;-91
2021/03/28 08:18:13;;;;;;;12.57;1.90;;;13.50;99.90;;;;;;4042848;29;20173;-94
2021/03/28 08:20:31;;;;;;;10.80;1.88;;;13.70;99.90;;;;;;4043418;29;20201;-92
2021/03/28 08:22:50;;;;;;;15.00;2.55;;;13.90;99.90;;;;;;4042515;29;20181;-95
2021/03/28 08:25:14;;;;;;;13.63;2.45;;;13.60;99.90;;;;;;4043137;29;20182;-93
2021/03/28 08:27:40;;;;;;;11.27;1.65;;;12.90;99.90;;;;;;4044805;29;20672;-92
2021/03/28 08:30:14;;;;;;;11.10;2.25;;;12.50;99.90;;;;;;4042581;29;20225;-94
2021/03/28 08:32:24;;;;;;;10.70;2.30;;;12.60;99.90;;;;;;4044603;29;20177;-95
2021/03/28 08:35:19;;;;;;;8.18;1.73;;;12.60;99.90;;;;;;4042265;29;20225;-94
2021/03/28 08:37:35;;;;;;;14.07;2.47;;;12.60;99.90;;;;;;4019285;29;20187;-91
2021/03/28 08:39:45;;;;;;;9.43;2.20;;;13.20;99.90;;;;;;4046230;29;20542;-94
2021/03/28 08:41:57;;;;;;;12.55;1.90;;;13.70;99.90;;;;;;4041196;29;20529;-95
2021/03/28 08:44:18;;;;;;;9.95;1.60;;;13.50;99.90;;;;;;4025344;29;20654;-94
2021/03/28 08:46:58;;;;;;;6.90;1.63;;;13.80;99.90;;;;;;4025277;29;20183;-93
2021/03/28 08:49:24;;;;;;;12.73;1.90;;;14.20;99.90;;;;;;4033386;29;20287;-95
2021/03/28 08:51:34;;;;;;;10.32;1.77;;;15.00;99.90;;;;;;4024221;29;20194;-92
2021/03/28 08:53:53;;;;;;;8.50;1.77;;;15.20;99.90;;;;;;4028499;29;20397;-92
2021/03/28 08:56:12;;;;;;;8.07;1.63;;;15.20;99.90;;;;;;4055230;29;20181;-95
2021/03/28 08:58:24;;;;;;;6.38;1.92;;;15.10;99.90;;;;;;4054775;29;20187;-92
2021/03/28 09:00:42;;;;;;;10.30;1.35;;;15.20;99.90;;;;;;4042494;29;20197;-94
2021/03/28 09:02:52;;;;;;;9.38;2.08;;;14.80;99.90;;;;;;4038955;29;20599;-91
2021/03/28 09:05:22;;;;;;;16.25;2.22;;;14.70;99.90;;;;;;4039144;29;20272;-95
2021/03/28 09:07:40;;;;;;;7.82;1.85;;;15.10;99.90;;;;;;4055508;29;20220;-91
2021/03/28 09:09:46;;;;;;;7.60;1.92;;;15.10;99.90;;;;;;4028737;29;20189;-93
2021/03/28 09:12:08;;;;;;;9.57;1.92;;;15.10;99.90;;;;;;4054345;29;20533;-91
2021/03/28 09:14:43;;;;;;;9.65;1.70;;;14.80;99.90;;;;;;4040555;29;20201;-93
2021/03/28 09:16:44;;;;;;;4.18;1.20;;;14.80;99.90;;;;;;4055830;29;20169;-91
2021/03/28 09:19:06;;;;;;;9.23;1.55;;;14.80;99.90;;;;;;4032582;29;20183;-94
2021/03/28 09:21:16;;;;;;;15.25;2.40;;;14.60;99.90;;;;;;4040134;29;20255;-95
2021/03/28 09:23:41;;;;;;;7.22;1.65;;;14.40;99.90;;;;;;4039990;29;20195;-92
2021/03/28 09:25:59;;;;;;;10.80;1.70;;;14.30;99.90;;;;;;4054529;29;20177;-94
2021/03/28 09:28:21;;;;;;;10.18;1.75;;;14.70;99.90;;;;;;4056394;29;20564;-93
2021/03/28 09:30:43;;;;;;;6.22;1.17;;;14.70;99.90;;;;;;4041369;29;20213;-93
2021/03/28 09:33:02;;;;;;;9.20;1.42;;;14.70;99.90;;;;;;4056271;29;20620;-91
2021/03/28 09:35:22;;;;;;;11.80;1.42;;;14.80;99.90;;;;;;4056118;29;20177;-91
2021/03/28 09:37:36;;;;;;;6.45;1.35;;;14.70;99.90;;;;;;4040507;29;20744;-92
2021/03/28 09:39:46;;;;;;;9.32;1.80;;;14.00;99.90;;;;;;4054761;29;20226;-93
2021/03/28 09:42:05;;;;;;;10.10;1.52;;;14.00;99.90;;;;;;4055796;29;20188;-92
2021/03/28 09:44:30;;;;;;;8.75;1.35;;;13.80;99.90;;;;;;4055710;29;20176;-95
2021/03/28 09:46:59;;;;;;;9.75;1.60;;;13.60;99.90;;;;;;4054707;29;20184;-93
2021/03/28 09:49:21;;;;;;;10.65;1.65;;;14.00;99.90;;;;;;4039881;29;20257;-95
2021/03/28 09:51:45;;;;;;;16.67;1.85;;;14.00;99.90;;;;;;4040064;29;20209;-92
2021/03/28 09:54:15;;;;;;;12.40;1.63;;;14.00;99.90;;;;;;4039981;29;20693;-92
2021/03/28 09:56:40;;;;;;;9.98;1.65;;;14.10;99.90;;;;;;4040441;29;20711;-92
2021/03/28 09:59:05;;;;;;;9.65;1.40;;;14.30;99.90;;;;;;4039496;29;20242;-91
2021/03/28 10:01:26;;;;;;;8.82;1.52;;;14.10;99.90;;;;;;4038982;29;20201;-94
2021/03/28 10:04:01;;;;;;;8.27;1.70;;;14.00;99.90;;;;;;4038441;29;20180;-92
2021/03/28 10:06:12;;;;;;;9.65;1.73;;;13.90;99.90;;;;;;4039292;29;20184;-93
2021/03/28 10:08:17;;;;;;;6.38;1.67;;;14.10;99.90;;;;;;4039666;29;20259;-94
2021/03/28 10:10:31;;;;;;;10.98;1.88;;;13.70;99.90;;;;;;4054583;29;20664;-93
2021/03/28 10:12:34;;;;;;;12.50;2.35;;;13.90;99.90;;;;;;4039339;29;20240;-93
2021/03/28 10:15:02;;;;;;;10.63;1.80;;;14.40;99.90;;;;;;4039343;29;20233;-94
2021/03/28 10:17:28;;;;;;;11.07;1.70;;;14.40;99.90;;;;;;4038793;29;20173;-92
2021/03/28 10:19:42;;;;;;;11.75;1.83;;;14.70;99.90;;;;;;4077317;23;20239;-95
2021/03/28 10:22:20;;;;;;;9.60;1.75;;;14.70;99.90;;;;;;4136343;23;20250;-94
2021/03/28 10:26:39;;;;;;;10.43;1.65;;;14.20;99.90;;;;;;4092113;28;20254;-95
2021/03/28 10:29:30;;;;;;;10.43;1.80;;;14.30;99.90;;;;;;4062639;29;20248;-94
2021/03/28 10:31:42;;;;;;;10.23;1.30;;;14.60;99.90;;;;;;4126785;23;20275;-94
2021/03/28 10:34:28;;;;;;;13.65;1.58;;;14.40;99.90;;;;;;4079080;29;20192;-96
2021/03/28 10:37:26;;;;;;;6.97;1.70;;;14.80;99.90;;;;;;4125555;23;20253;-96
2021/03/28 10:39:48;;;;;;;10.27;1.75;;;15.20;99.90;;;;;;4097994;29;20191;-95
2021/03/28 10:42:21;;;;;;;13.93;1.80;;;15.30;99.90;;;;;;4123395;23;20209;-94
2021/03/28 10:53:22;;;;;;;9.90;1.98;;;14.20;99.90;;;;;;4583451;23;20254;-96
2021/03/28 10:56:11;;;;;;;9.35;1.50;;;14.20;99.90;;;;;;4096746;29;20199;-95
2021/03/28 10:58:49;;;;;;;7.82;1.67;;;14.40;99.90;;;;;;4101828;28;20163;-95
2021/03/28 11:04:50;;;;;;;11.48;2.08;;;14.50;99.90;;;;;;4158763;23;20235;-95
2021/03/28 11:07:50;;;;;;;8.13;1.52;;;14.20;99.90;;;;;;4155377;23;20226;-94
2021/03/28 11:10:34;;;;;;;9.50;1.85;;;14.40;99.90;;;;;;4143488;23;20228;-95
2021/03/28 11:16:24;;;;;;;10.43;1.55;;;14.90;99.90;;;;;;4186493;23;20245;-96
2021/03/28 11:19:16;;;;;;;18.30;1.92;;;14.60;99.90;;;;;;4085973;29;20160;-96
2021/03/28 11:22:16;;;;;;;11.77;2.03;;;14.80;99.90;;;;;;4078665;29;20208;-95
2021/03/28 11:28:16;;;;;;;10.70;1.90;;;14.30;99.90;;;;;;4067746;29;20209;-95
2021/03/28 11:30:37;;;;;;;8.18;1.92;;;14.40;99.90;;;;;;4078462;29;20180;-95
2021/03/28 11:32:49;;;;;;;11.90;1.95;;;14.40;99.90;;;;;;4053280;29;20636;-96
2021/03/28 11:35:20;;;;;;;8.45;1.90;;;14.70;99.90;;;;;;4087927;29;20207;-94
2021/03/28 11:40:24;;;;;;;13.98;2.20;;;14.50;99.90;;;;;;4193622;23;20248;-94
2021/03/28 11:42:27;;;;;;;14.13;2.15;;;14.70;99.90;;;;;;4085759;29;20172;-94
2021/03/28 11:45:11;;;;;;;;;;;;;;;;;;;;;
2021/03/28 11:48:02;;;;;;;10.13;1.88;;;14.80;99.90;;;;;;4090585;29;20232;-94
2021/03/28 11:50:35;;;;;;;12.70;2.17;;;14.60;99.90;;;;;;4098119;29;20185;-95
2021/03/28 11:53:02;;;;;;;11.13;1.98;;;14.70;99.90;;;;;;4085008;29;20158;-94
2021/03/28 11:55:28;;;;;;;9.30;2.17;;;15.00;99.90;;;;;;4163510;23;20284;-95
2021/03/28 11:57:34;;;;;;;8.70;1.65;;;15.00;99.90;;;;;;4082425;29;20184;-96
2021/03/28 11:59:41;;;;;;;5.97;1.42;;;15.00;99.90;;;;;;4095352;29;20624;-95
2021/03/28 12:02:20;;;;;;;12.70;2.10;;;14.70;99.90;;;;;;4095139;29;20204;-94
2021/03/28 12:04:32;;;;;;;13.43;2.03;;;14.50;99.90;;;;;;4077130;29;20216;-94
2021/03/28 12:06:50;;;;;;;14.55;2.25;;;14.40;99.90;;;;;;4063555;29;20181;-94
2021/03/28 12:09:03;;;;;;;14.70;2.15;;;14.60;99.90;;;;;;4078150;29;20219;-92
2021/03/28 12:11:41;;;;;;;5.35;1.80;;;14.60;99.90;;;;;;4080507;29;20290;-94
2021/03/28 12:13:51;;;;;;;6.72;1.90;;;14.90;99.90;;;;;;4081299;29;20239;-95
2021/03/28 12:15:59;;;;;;;9.18;2.10;;;14.60;99.90;;;;;;4081267;29;20164;-94
2021/03/28 12:18:39;;;;;;;9.77;1.80;;;14.60;99.90;;;;;;4064469;29;20652;-95
2021/03/28 12:21:09;;;;;;;7.53;2.00;;;14.50;99.90;;;;;;4063559;29;20212;-96
2021/03/28 12:23:24;;;;;;;13.82;2.17;;;14.40;99.90;;;;;;4061384;29;20181;-94
2021/03/28 12:25:32;;;;;;;13.65;2.08;;;14.00;99.90;;;;;;4061131;29;20185;-94
2021/03/28 12:27:41;;;;;;;15.57;1.92;;;14.00;99.90;;;;;;4071535;29;20687;-94
2021/03/28 12:29:50;;;;;;;8.20;1.88;;;14.20;99.90;;;;;;4097138;29;20175;-95
2021/03/28 12:32:40;;;;;;;15.40;2.20;;;14.20;99.90;;;;;;4098834;29;20192;-95
2021/03/28 12:34:48;;;;;;;13.88;2.20;;;14.60;99.90;;;;;;4065770;29;20197;-94
2021/03/28 12:37:12;;;;;;;11.95;2.10;;;14.70;99.90;;;;;;4078921;29;20280;-94
2021/03/28 12:39:31;;;;;;;9.82;1.85;;;15.00;99.90;;;;;;4084670;29;20181;-95
2021/03/28 12:41:37;;;;;;;13.88;2.60;;;15.10;99.90;;;;;;4082609;29;20244;-94
2021/03/28 12:49:32;;;;;;;9.40;1.73;;;15.50;99.90;;;;;;4138707;23;20360;-94
2021/03/28 12:51:34;;;;;;;11.38;2.10;;;15.10;99.90;;;;;;4083009;29;20204;-95
2021/03/28 12:53:40;;;;;;;7.20;1.80;;;14.80;99.90;;;;;;4115519;29;20215;-95
2021/03/28 12:56:03;;;;;;;11.00;2.08;;;14.70;99.90;;;;;;4184559;23;20171;-92
2021/03/28 12:58:09;;;;;;;14.40;2.05;;;14.50;99.90;;;;;;4100547;23;20242;-96
2021/03/28 13:00:51;;;;;;;9.80;1.88;;;14.50;99.90;;;;;;4092704;29;20254;-95
2021/03/28 13:02:58;;;;;;;10.57;1.88;;;14.70;99.90;;;;;;4094156;29;20186;-94
2021/03/28 13:05:17;;;;;;;8.95;1.75;;;14.80;99.90;;;;;;4093286;29;20748;-93
2021/03/28 13:07:50;;;;;;;11.00;1.90;;;15.00;99.90;;;;;;4076674;29;20217;-94
2021/03/28 13:10:04;;;;;;;13.85;1.98;;;15.30;99.90;;;;;;4091735;23;20278;-94
2021/03/28 13:12:23;;;;;;;7.63;1.45;;;15.00;99.90;;;;;;4073181;29;20172;-95
2021/03/28 13:14:44;;;;;;;8.95;1.90;;;14.80;99.90;;;;;;4087833;29;20552;-95
2021/03/28 13:17:18;;;;;;;9.00;1.77;;;14.90;99.90;;;;;;4041878;29;20188;-94
2021/03/28 13:19:26;;;;;;;10.13;1.77;;;14.80;99.90;;;;;;4045648;29;20205;-94
2021/03/28 13:21:43;;;;;;;10.20;1.60;;;14.70;99.90;;;;;;4051359;29;20251;-95
2021/03/28 13:24:02;;;;;;;9.82;1.70;;;14.70;99.90;;;;;;4053727;23;20311;-94
2021/03/28 13:26:35;;;;;;;10.05;1.67;;;14.80;99.90;;;;;;4083178;29;20208;-94
2021/03/28 13:28:56;;;;;;;14.30;1.90;;;14.80;99.90;;;;;;4081914;29;20589;-94
2021/03/28 13:31:19;;;;;;;13.57;2.15;;;14.70;99.90;;;;;;4076186;29;20295;-94
2021/03/28 13:33:47;;;;;;;12.73;2.33;;;14.70;99.90;;;;;;4067038;29;20220;-94
2021/03/28 13:35:53;;;;;;;8.90;1.70;;;14.80;99.90;;;;;;4064722;29;20185;-95
2021/03/28 13:37:56;;;;;;;11.93;1.70;;;14.80;99.90;;;;;;4083008;29;20255;-94
2021/03/28 13:40:14;;;;;;;9.45;1.65;;;14.90;99.90;;;;;;4063883;29;20241;-94
2021/03/28 13:42:42;;;;;;;9.88;1.90;;;14.80;99.90;;;;;;4062501;29;20649;-92
2021/03/28 13:45:09;;;;;;;7.15;1.70;;;14.80;99.90;;;;;;4066462;29;20192;-95
2021/03/28 13:47:33;;;;;;;6.30;1.40;;;14.80;99.90;;;;;;4078173;29;20208;-94
2021/03/28 13:49:49;;;;;;;9.95;1.70;;;14.80;99.90;;;;;;4087702;23;20624;31
2021/03/28 13:52:14;;;;;;;9.25;1.90;;;15.10;99.90;;;;;;4076172;29;20188;-94
2021/03/28 13:54:37;;;;;;;12.65;2.13;;;15.40;99.90;;;;;;4062730;29;20307;-93
2021/03/28 13:56:43;;;;;;;11.85;1.88;;;15.30;99.90;;;;;;4073186;29;20196;-94
2021/03/28 13:58:59;;;;;;;12.43;2.28;;;15.20;99.90;;;;;;4062743;29;20257;-94